sensor_id;sensor_type;location;lat;lon;timestamp;P1;durP1;ratioP1;P2;durP2;ratioP2
73585;SDS011;61865;50.232;18.614;2023-08-06T00:01:25;27.08;;;12.73;;
73585;SDS011;61865;50.232;18.614;2023-08-06T00:03:48;23.85;;;12.25;;
73585;SDS011;61865;50.232;18.614;2023-08-06T00:06:11;19.48;;;12.05;;
73585;SDS011;61865;50.232;18.614;2023-08-06T00:08:36;22.73;;;12.18;;
73585;SDS011;61865;50.232;18.614;2023-08-06T00:10:58;24.42;;;12.30;;
73585;SDS011;61865;50.232;18.614;2023-08-06T00:13:21;25.52;;;12.63;;
73585;SDS011;61865;50.232;18.614;2023-08-06T00:15:43;26.15;;;12.15;;
73585;SDS011;61865;50.232;18.614;2023-08-06T00:18:05;25.10;;;12.60;;
73585;SDS011;61865;50.232;18.614;2023-08-06T00:20:29;22.30;;;13.00;;
73585;SDS011;61865;50.232;18.614;2023-08-06T00:22:51;24.92;;;12.93;;
73585;SDS011;61865;50.232;18.614;2023-08-06T00:25:14;26.80;;;13.70;;
73585;SDS011;61865;50.232;18.614;2023-08-06T00:27:36;31.75;;;14.23;;
73585;SDS011;61865;50.232;18.614;2023-08-06T00:29:58;30.88;;;14.80;;
73585;SDS011;61865;50.232;18.614;2023-08-06T00:32:21;31.88;;;15.18;;
73585;SDS011;61865;50.232;18.614;2023-08-06T00:34:43;33.65;;;17.02;;
73585;SDS011;61865;50.232;18.614;2023-08-06T00:37:07;44.67;;;18.58;;
73585;SDS011;61865;50.232;18.614;2023-08-06T00:39:29;50.55;;;19.13;;
73585;SDS011;61865;50.232;18.614;2023-08-06T00:41:51;53.38;;;20.80;;
73585;SDS011;61865;50.232;18.614;2023-08-06T00:44:14;53.35;;;21.42;;
73585;SDS011;61865;50.232;18.614;2023-08-06T00:46:37;48.67;;;19.77;;
73585;SDS011;61865;50.232;18.614;2023-08-06T00:48:59;66.72;;;21.35;;
73585;SDS011;61865;50.232;18.614;2023-08-06T00:51:22;64.65;;;23.30;;
73585;SDS011;61865;50.232;18.614;2023-08-06T00:53:46;75.35;;;24.67;;
73585;SDS011;61865;50.232;18.614;2023-08-06T00:56:08;93.43;;;26.73;;
73585;SDS011;61865;50.232;18.614;2023-08-06T00:58:31;84.82;;;24.52;;
73585;SDS011;61865;50.232;18.614;2023-08-06T01:00:54;93.60;;;27.35;;
73585;SDS011;61865;50.232;18.614;2023-08-06T01:03:17;99.18;;;26.77;;
73585;SDS011;61865;50.232;18.614;2023-08-06T01:05:40;80.18;;;23.27;;
73585;SDS011;61865;50.232;18.614;2023-08-06T01:08:06;96.43;;;25.30;;
73585;SDS011;61865;50.232;18.614;2023-08-06T01:10:35;76.18;;;22.88;;
73585;SDS011;61865;50.232;18.614;2023-08-06T01:13:03;83.07;;;25.17;;
73585;SDS011;61865;50.232;18.614;2023-08-06T01:15:30;83.00;;;23.63;;
73585;SDS011;61865;50.232;18.614;2023-08-06T01:17:55;85.75;;;22.13;;
73585;SDS011;61865;50.232;18.614;2023-08-06T01:20:17;141.80;;;25.60;;
73585;SDS011;61865;50.232;18.614;2023-08-06T01:22:41;133.30;;;29.23;;
73585;SDS011;61865;50.232;18.614;2023-08-06T01:25:04;129.25;;;29.13;;
73585;SDS011;61865;50.232;18.614;2023-08-06T01:27:28;153.85;;;31.15;;
73585;SDS011;61865;50.232;18.614;2023-08-06T01:29:54;137.57;;;29.52;;
73585;SDS011;61865;50.232;18.614;2023-08-06T01:32:19;148.88;;;30.30;;
73585;SDS011;61865;50.232;18.614;2023-08-06T01:34:43;150.10;;;32.17;;
73585;SDS011;61865;50.232;18.614;2023-08-06T01:37:06;155.77;;;32.03;;
73585;SDS011;61865;50.232;18.614;2023-08-06T01:39:30;162.55;;;31.58;;
73585;SDS011;61865;50.232;18.614;2023-08-06T01:41:55;125.25;;;28.77;;
73585;SDS011;61865;50.232;18.614;2023-08-06T01:44:17;122.05;;;28.50;;
73585;SDS011;61865;50.232;18.614;2023-08-06T01:46:39;149.80;;;26.77;;
73585;SDS011;61865;50.232;18.614;2023-08-06T01:49:02;140.50;;;27.00;;
73585;SDS011;61865;50.232;18.614;2023-08-06T01:51:24;131.90;;;25.45;;
73585;SDS011;61865;50.232;18.614;2023-08-06T01:53:47;96.93;;;24.98;;
73585;SDS011;61865;50.232;18.614;2023-08-06T01:56:10;132.32;;;25.33;;
73585;SDS011;61865;50.232;18.614;2023-08-06T01:58:33;108.97;;;23.85;;
73585;SDS011;61865;50.232;18.614;2023-08-06T02:00:55;111.88;;;24.25;;
73585;SDS011;61865;50.232;18.614;2023-08-06T02:03:17;156.95;;;24.70;;
73585;SDS011;61865;50.232;18.614;2023-08-06T02:05:40;133.13;;;23.20;;
73585;SDS011;61865;50.232;18.614;2023-08-06T02:08:02;115.90;;;23.48;;
73585;SDS011;61865;50.232;18.614;2023-08-06T02:10:29;169.13;;;24.60;;
73585;SDS011;61865;50.232;18.614;2023-08-06T02:12:52;233.02;;;26.85;;
73585;SDS011;61865;50.232;18.614;2023-08-06T02:15:15;161.05;;;25.90;;
73585;SDS011;61865;50.232;18.614;2023-08-06T02:17:37;152.20;;;26.80;;
73585;SDS011;61865;50.232;18.614;2023-08-06T02:19:59;182.07;;;26.40;;
73585;SDS011;61865;50.232;18.614;2023-08-06T02:22:22;104.65;;;24.60;;
73585;SDS011;61865;50.232;18.614;2023-08-06T02:24:45;148.07;;;23.75;;
73585;SDS011;61865;50.232;18.614;2023-08-06T02:27:08;135.25;;;22.00;;
73585;SDS011;61865;50.232;18.614;2023-08-06T02:29:32;138.82;;;22.73;;
73585;SDS011;61865;50.232;18.614;2023-08-06T02:31:54;107.40;;;21.00;;
73585;SDS011;61865;50.232;18.614;2023-08-06T02:34:16;80.18;;;18.50;;
73585;SDS011;61865;50.232;18.614;2023-08-06T02:36:38;168.82;;;21.55;;
73585;SDS011;61865;50.232;18.614;2023-08-06T02:39:01;294.85;;;25.83;;
73585;SDS011;61865;50.232;18.614;2023-08-06T02:41:23;116.30;;;21.80;;
73585;SDS011;61865;50.232;18.614;2023-08-06T02:43:45;174.63;;;23.27;;
73585;SDS011;61865;50.232;18.614;2023-08-06T02:46:09;137.00;;;22.02;;
73585;SDS011;61865;50.232;18.614;2023-08-06T02:48:31;106.65;;;21.35;;
73585;SDS011;61865;50.232;18.614;2023-08-06T02:50:56;98.47;;;19.67;;
73585;SDS011;61865;50.232;18.614;2023-08-06T02:53:19;142.68;;;21.95;;
73585;SDS011;61865;50.232;18.614;2023-08-06T02:55:45;102.45;;;20.73;;
73585;SDS011;61865;50.232;18.614;2023-08-06T02:58:08;82.30;;;20.38;;
73585;SDS011;61865;50.232;18.614;2023-08-06T03:00:30;127.78;;;22.05;;
73585;SDS011;61865;50.232;18.614;2023-08-06T03:02:54;131.98;;;23.10;;
73585;SDS011;61865;50.232;18.614;2023-08-06T03:05:16;175.63;;;23.42;;
73585;SDS011;61865;50.232;18.614;2023-08-06T03:07:38;94.50;;;22.30;;
73585;SDS011;61865;50.232;18.614;2023-08-06T03:10:06;78.32;;;19.33;;
73585;SDS011;61865;50.232;18.614;2023-08-06T03:12:29;63.67;;;17.85;;
73585;SDS011;61865;50.232;18.614;2023-08-06T03:14:51;60.13;;;17.05;;
73585;SDS011;61865;50.232;18.614;2023-08-06T03:17:13;46.67;;;15.25;;
73585;SDS011;61865;50.232;18.614;2023-08-06T03:19:37;47.05;;;16.17;;
73585;SDS011;61865;50.232;18.614;2023-08-06T03:22:00;37.35;;;15.07;;
73585;SDS011;61865;50.232;18.614;2023-08-06T03:24:22;44.80;;;14.43;;
73585;SDS011;61865;50.232;18.614;2023-08-06T03:26:44;27.45;;;13.48;;
73585;SDS011;61865;50.232;18.614;2023-08-06T03:29:07;35.10;;;13.15;;
73585;SDS011;61865;50.232;18.614;2023-08-06T03:31:29;25.77;;;11.68;;
73585;SDS011;61865;50.232;18.614;2023-08-06T03:33:51;25.80;;;10.93;;
73585;SDS011;61865;50.232;18.614;2023-08-06T03:36:15;21.15;;;9.77;;
73585;SDS011;61865;50.232;18.614;2023-08-06T03:38:37;16.20;;;8.20;;
73585;SDS011;61865;50.232;18.614;2023-08-06T03:41:00;10.77;;;5.75;;
73585;SDS011;61865;50.232;18.614;2023-08-06T03:43:22;26.73;;;6.90;;
73585;SDS011;61865;50.232;18.614;2023-08-06T03:45:44;19.50;;;5.13;;
73585;SDS011;61865;50.232;18.614;2023-08-06T03:48:07;7.60;;;4.18;;
73585;SDS011;61865;50.232;18.614;2023-08-06T03:50:31;6.10;;;4.20;;
73585;SDS011;61865;50.232;18.614;2023-08-06T03:52:54;11.77;;;4.20;;
73585;SDS011;61865;50.232;18.614;2023-08-06T03:55:17;6.88;;;4.10;;
73585;SDS011;61865;50.232;18.614;2023-08-06T03:57:39;5.55;;;4.00;;
73585;SDS011;61865;50.232;18.614;2023-08-06T04:00:02;6.22;;;3.25;;
73585;SDS011;61865;50.232;18.614;2023-08-06T04:02:24;5.80;;;3.88;;
73585;SDS011;61865;50.232;18.614;2023-08-06T04:04:47;5.28;;;3.70;;
73585;SDS011;61865;50.232;18.614;2023-08-06T04:07:09;6.32;;;3.70;;
73585;SDS011;61865;50.232;18.614;2023-08-06T04:09:35;4.80;;;3.53;;
73585;SDS011;61865;50.232;18.614;2023-08-06T04:12:12;11.85;;;3.13;;
73585;SDS011;61865;50.232;18.614;2023-08-06T04:14:35;4.55;;;3.17;;
73585;SDS011;61865;50.232;18.614;2023-08-06T04:16:57;3.97;;;3.20;;
73585;SDS011;61865;50.232;18.614;2023-08-06T04:19:19;7.85;;;3.70;;
73585;SDS011;61865;50.232;18.614;2023-08-06T04:21:41;7.45;;;4.00;;
73585;SDS011;61865;50.232;18.614;2023-08-06T04:24:04;10.05;;;3.83;;
73585;SDS011;61865;50.232;18.614;2023-08-06T04:26:27;6.43;;;4.45;;
73585;SDS011;61865;50.232;18.614;2023-08-06T04:28:50;8.38;;;4.10;;
73585;SDS011;61865;50.232;18.614;2023-08-06T04:31:12;77.22;;;6.57;;
73585;SDS011;61865;50.232;18.614;2023-08-06T04:33:35;20.17;;;4.80;;
73585;SDS011;61865;50.232;18.614;2023-08-06T04:35:57;31.73;;;4.82;;
73585;SDS011;61865;50.232;18.614;2023-08-06T04:38:19;0.47;;;0.47;;
73585;SDS011;61865;50.232;18.614;2023-08-06T04:40:41;1.02;;;0.88;;
73585;SDS011;61865;50.232;18.614;2023-08-06T04:43:05;0.40;;;0.40;;
73585;SDS011;61865;50.232;18.614;2023-08-06T04:45:28;0.50;;;0.50;;
73585;SDS011;61865;50.232;18.614;2023-08-06T04:47:50;0.40;;;0.40;;
73585;SDS011;61865;50.232;18.614;2023-08-06T04:50:12;0.40;;;0.40;;
73585;SDS011;61865;50.232;18.614;2023-08-06T04:52:34;0.85;;;0.85;;
73585;SDS011;61865;50.232;18.614;2023-08-06T04:54:57;0.50;;;0.50;;
73585;SDS011;61865;50.232;18.614;2023-08-06T04:57:19;0.40;;;0.40;;
73585;SDS011;61865;50.232;18.614;2023-08-06T04:59:43;5.68;;;1.65;;
73585;SDS011;61865;50.232;18.614;2023-08-06T05:02:05;0.40;;;0.40;;
73585;SDS011;61865;50.232;18.614;2023-08-06T05:04:28;1.05;;;0.95;;
73585;SDS011;61865;50.232;18.614;2023-08-06T05:06:50;0.40;;;0.40;;
73585;SDS011;61865;50.232;18.614;2023-08-06T05:09:13;0.40;;;0.40;;
73585;SDS011;61865;50.232;18.614;2023-08-06T05:11:36;0.43;;;0.43;;
73585;SDS011;61865;50.232;18.614;2023-08-06T05:13:58;0.50;;;0.50;;
73585;SDS011;61865;50.232;18.614;2023-08-06T05:16:22;0.50;;;0.50;;
73585;SDS011;61865;50.232;18.614;2023-08-06T05:18:44;0.50;;;0.50;;
73585;SDS011;61865;50.232;18.614;2023-08-06T05:21:07;0.40;;;0.40;;
73585;SDS011;61865;50.232;18.614;2023-08-06T05:23:29;0.40;;;0.40;;
73585;SDS011;61865;50.232;18.614;2023-08-06T05:25:52;0.43;;;0.43;;
73585;SDS011;61865;50.232;18.614;2023-08-06T05:28:14;0.50;;;0.50;;
73585;SDS011;61865;50.232;18.614;2023-08-06T05:30:38;0.50;;;0.50;;
73585;SDS011;61865;50.232;18.614;2023-08-06T05:33:02;0.60;;;0.60;;
73585;SDS011;61865;50.232;18.614;2023-08-06T05:35:24;0.50;;;0.50;;
73585;SDS011;61865;50.232;18.614;2023-08-06T05:37:47;0.60;;;0.60;;
73585;SDS011;61865;50.232;18.614;2023-08-06T05:40:09;0.50;;;0.50;;
73585;SDS011;61865;50.232;18.614;2023-08-06T05:42:32;0.50;;;0.50;;
73585;SDS011;61865;50.232;18.614;2023-08-06T05:44:54;0.50;;;0.50;;
73585;SDS011;61865;50.232;18.614;2023-08-06T05:47:16;0.50;;;0.50;;
73585;SDS011;61865;50.232;18.614;2023-08-06T05:49:41;0.50;;;0.50;;
73585;SDS011;61865;50.232;18.614;2023-08-06T05:52:03;0.50;;;0.50;;
73585;SDS011;61865;50.232;18.614;2023-08-06T05:54:28;0.50;;;0.50;;
73585;SDS011;61865;50.232;18.614;2023-08-06T05:56:50;0.50;;;0.50;;
73585;SDS011;61865;50.232;18.614;2023-08-06T05:59:13;0.50;;;0.50;;
73585;SDS011;61865;50.232;18.614;2023-08-06T06:01:35;0.50;;;0.50;;
73585;SDS011;61865;50.232;18.614;2023-08-06T06:03:57;0.50;;;0.50;;
73585;SDS011;61865;50.232;18.614;2023-08-06T06:06:21;0.45;;;0.45;;
73585;SDS011;61865;50.232;18.614;2023-08-06T06:08:47;0.40;;;0.40;;
73585;SDS011;61865;50.232;18.614;2023-08-06T06:11:09;0.50;;;0.50;;
73585;SDS011;61865;50.232;18.614;2023-08-06T06:13:32;0.50;;;0.50;;
73585;SDS011;61865;50.232;18.614;2023-08-06T06:15:54;0.50;;;0.50;;
73585;SDS011;61865;50.232;18.614;2023-08-06T06:18:16;0.50;;;0.50;;
73585;SDS011;61865;50.232;18.614;2023-08-06T06:20:39;0.50;;;0.50;;
73585;SDS011;61865;50.232;18.614;2023-08-06T06:23:02;0.52;;;0.52;;
73585;SDS011;61865;50.232;18.614;2023-08-06T06:25:25;0.70;;;0.70;;
73585;SDS011;61865;50.232;18.614;2023-08-06T06:27:47;1.08;;;1.00;;
73585;SDS011;61865;50.232;18.614;2023-08-06T06:30:10;0.60;;;0.60;;
73585;SDS011;61865;50.232;18.614;2023-08-06T06:32:33;0.60;;;0.60;;
73585;SDS011;61865;50.232;18.614;2023-08-06T06:34:55;11.27;;;3.03;;
73585;SDS011;61865;50.232;18.614;2023-08-06T06:37:18;0.50;;;0.50;;
73585;SDS011;61865;50.232;18.614;2023-08-06T06:39:43;0.60;;;0.60;;
73585;SDS011;61865;50.232;18.614;2023-08-06T06:42:05;0.50;;;0.50;;
73585;SDS011;61865;50.232;18.614;2023-08-06T06:44:27;0.50;;;0.50;;
73585;SDS011;61865;50.232;18.614;2023-08-06T06:46:50;0.60;;;0.60;;
73585;SDS011;61865;50.232;18.614;2023-08-06T06:49:12;0.50;;;0.50;;
73585;SDS011;61865;50.232;18.614;2023-08-06T06:51:34;0.60;;;0.60;;
73585;SDS011;61865;50.232;18.614;2023-08-06T06:53:56;0.60;;;0.60;;
73585;SDS011;61865;50.232;18.614;2023-08-06T06:56:20;0.60;;;0.60;;
73585;SDS011;61865;50.232;18.614;2023-08-06T06:58:43;0.60;;;0.60;;
73585;SDS011;61865;50.232;18.614;2023-08-06T07:01:05;0.60;;;0.60;;
73585;SDS011;61865;50.232;18.614;2023-08-06T07:03:27;0.55;;;0.55;;
73585;SDS011;61865;50.232;18.614;2023-08-06T07:05:50;0.60;;;0.60;;
73585;SDS011;61865;50.232;18.614;2023-08-06T07:08:18;0.60;;;0.60;;
73585;SDS011;61865;50.232;18.614;2023-08-06T07:10:40;0.60;;;0.60;;
73585;SDS011;61865;50.232;18.614;2023-08-06T07:13:04;0.60;;;0.60;;
73585;SDS011;61865;50.232;18.614;2023-08-06T07:15:27;0.60;;;0.60;;
73585;SDS011;61865;50.232;18.614;2023-08-06T07:17:49;0.60;;;0.60;;
73585;SDS011;61865;50.232;18.614;2023-08-06T07:20:11;0.70;;;0.70;;
73585;SDS011;61865;50.232;18.614;2023-08-06T07:22:34;0.50;;;0.50;;
73585;SDS011;61865;50.232;18.614;2023-08-06T07:24:56;0.60;;;0.60;;
73585;SDS011;61865;50.232;18.614;2023-08-06T07:27:18;0.50;;;0.50;;
73585;SDS011;61865;50.232;18.614;2023-08-06T07:29:42;0.60;;;0.60;;
73585;SDS011;61865;50.232;18.614;2023-08-06T07:32:05;0.60;;;0.60;;
73585;SDS011;61865;50.232;18.614;2023-08-06T07:34:28;0.65;;;0.65;;
73585;SDS011;61865;50.232;18.614;2023-08-06T07:36:50;0.50;;;0.50;;
73585;SDS011;61865;50.232;18.614;2023-08-06T07:39:13;0.60;;;0.60;;
73585;SDS011;61865;50.232;18.614;2023-08-06T07:41:36;0.60;;;0.60;;
73585;SDS011;61865;50.232;18.614;2023-08-06T07:43:59;1.25;;;1.25;;
73585;SDS011;61865;50.232;18.614;2023-08-06T07:46:23;0.68;;;0.68;;
73585;SDS011;61865;50.232;18.614;2023-08-06T07:48:45;0.60;;;0.60;;
73585;SDS011;61865;50.232;18.614;2023-08-06T07:51:11;0.60;;;0.60;;
73585;SDS011;61865;50.232;18.614;2023-08-06T07:53:33;0.60;;;0.60;;
73585;SDS011;61865;50.232;18.614;2023-08-06T07:55:56;0.60;;;0.60;;
73585;SDS011;61865;50.232;18.614;2023-08-06T07:58:19;0.60;;;0.60;;
73585;SDS011;61865;50.232;18.614;2023-08-06T08:00:41;0.98;;;0.98;;
73585;SDS011;61865;50.232;18.614;2023-08-06T08:03:06;0.60;;;0.60;;
73585;SDS011;61865;50.232;18.614;2023-08-06T08:05:29;0.80;;;0.80;;
73585;SDS011;61865;50.232;18.614;2023-08-06T08:07:51;0.60;;;0.60;;
73585;SDS011;61865;50.232;18.614;2023-08-06T08:10:13;0.60;;;0.60;;
73585;SDS011;61865;50.232;18.614;2023-08-06T08:12:36;0.60;;;0.60;;
73585;SDS011;61865;50.232;18.614;2023-08-06T08:14:58;1.65;;;1.60;;
73585;SDS011;61865;50.232;18.614;2023-08-06T08:17:20;0.70;;;0.70;;
73585;SDS011;61865;50.232;18.614;2023-08-06T08:19:44;0.70;;;0.70;;
73585;SDS011;61865;50.232;18.614;2023-08-06T08:22:07;0.70;;;0.70;;
73585;SDS011;61865;50.232;18.614;2023-08-06T08:24:29;0.70;;;0.70;;
73585;SDS011;61865;50.232;18.614;2023-08-06T08:26:51;0.60;;;0.60;;
73585;SDS011;61865;50.232;18.614;2023-08-06T08:29:14;0.70;;;0.70;;
73585;SDS011;61865;50.232;18.614;2023-08-06T08:31:36;0.68;;;0.68;;
73585;SDS011;61865;50.232;18.614;2023-08-06T08:33:59;0.60;;;0.60;;
73585;SDS011;61865;50.232;18.614;2023-08-06T08:36:23;0.60;;;0.60;;
73585;SDS011;61865;50.232;18.614;2023-08-06T08:38:45;0.70;;;0.70;;
73585;SDS011;61865;50.232;18.614;2023-08-06T08:41:09;0.60;;;0.60;;
73585;SDS011;61865;50.232;18.614;2023-08-06T08:43:32;0.60;;;0.60;;
73585;SDS011;61865;50.232;18.614;2023-08-06T08:45:54;0.60;;;0.60;;
73585;SDS011;61865;50.232;18.614;2023-08-06T08:48:18;0.65;;;0.65;;
73585;SDS011;61865;50.232;18.614;2023-08-06T08:50:42;0.60;;;0.60;;
73585;SDS011;61865;50.232;18.614;2023-08-06T08:53:06;2.25;;;2.15;;
73585;SDS011;61865;50.232;18.614;2023-08-06T08:55:29;0.60;;;0.60;;
73585;SDS011;61865;50.232;18.614;2023-08-06T08:57:51;0.60;;;0.60;;
73585;SDS011;61865;50.232;18.614;2023-08-06T09:00:13;0.60;;;0.60;;
73585;SDS011;61865;50.232;18.614;2023-08-06T09:02:39;0.68;;;0.68;;
73585;SDS011;61865;50.232;18.614;2023-08-06T09:05:02;0.60;;;0.60;;
73585;SDS011;61865;50.232;18.614;2023-08-06T09:07:26;0.60;;;0.60;;
73585;SDS011;61865;50.232;18.614;2023-08-06T09:09:50;0.60;;;0.60;;
73585;SDS011;61865;50.232;18.614;2023-08-06T09:12:14;0.60;;;0.60;;
73585;SDS011;61865;50.232;18.614;2023-08-06T09:14:36;1.38;;;1.35;;
73585;SDS011;61865;50.232;18.614;2023-08-06T09:16:59;0.60;;;0.60;;
73585;SDS011;61865;50.232;18.614;2023-08-06T09:19:21;0.50;;;0.50;;
73585;SDS011;61865;50.232;18.614;2023-08-06T09:21:45;0.60;;;0.60;;
73585;SDS011;61865;50.232;18.614;2023-08-06T09:24:08;0.60;;;0.60;;
73585;SDS011;61865;50.232;18.614;2023-08-06T09:26:36;0.60;;;0.60;;
73585;SDS011;61865;50.232;18.614;2023-08-06T09:28:58;0.60;;;0.60;;
73585;SDS011;61865;50.232;18.614;2023-08-06T09:31:21;0.60;;;0.60;;
73585;SDS011;61865;50.232;18.614;2023-08-06T09:33:44;0.60;;;0.60;;
73585;SDS011;61865;50.232;18.614;2023-08-06T09:36:10;0.60;;;0.60;;
73585;SDS011;61865;50.232;18.614;2023-08-06T09:38:34;0.52;;;0.52;;
73585;SDS011;61865;50.232;18.614;2023-08-06T09:40:59;0.60;;;0.60;;
73585;SDS011;61865;50.232;18.614;2023-08-06T09:43:23;0.63;;;0.63;;
73585;SDS011;61865;50.232;18.614;2023-08-06T09:45:45;0.60;;;0.60;;
73585;SDS011;61865;50.232;18.614;2023-08-06T09:48:08;0.60;;;0.60;;
73585;SDS011;61865;50.232;18.614;2023-08-06T09:50:32;0.60;;;0.60;;
73585;SDS011;61865;50.232;18.614;2023-08-06T09:52:56;0.70;;;0.70;;
73585;SDS011;61865;50.232;18.614;2023-08-06T09:55:18;0.60;;;0.60;;
73585;SDS011;61865;50.232;18.614;2023-08-06T09:57:41;0.70;;;0.70;;
73585;SDS011;61865;50.232;18.614;2023-08-06T10:00:10;0.60;;;0.60;;
73585;SDS011;61865;50.232;18.614;2023-08-06T10:02:33;0.60;;;0.60;;
73585;SDS011;61865;50.232;18.614;2023-08-06T10:04:56;1.25;;;1.15;;
73585;SDS011;61865;50.232;18.614;2023-08-06T10:07:19;0.63;;;0.63;;
73585;SDS011;61865;50.232;18.614;2023-08-06T10:09:46;0.60;;;0.60;;
73585;SDS011;61865;50.232;18.614;2023-08-06T10:12:08;0.60;;;0.60;;
73585;SDS011;61865;50.232;18.614;2023-08-06T10:14:32;0.60;;;0.60;;
73585;SDS011;61865;50.232;18.614;2023-08-06T10:16:57;0.70;;;0.70;;
73585;SDS011;61865;50.232;18.614;2023-08-06T10:19:20;0.60;;;0.60;;
73585;SDS011;61865;50.232;18.614;2023-08-06T10:21:50;37.90;;;2.88;;
73585;SDS011;61865;50.232;18.614;2023-08-06T10:24:40;0.60;;;0.60;;
73585;SDS011;61865;50.232;18.614;2023-08-06T10:27:07;0.60;;;0.60;;
73585;SDS011;61865;50.232;18.614;2023-08-06T10:29:35;0.60;;;0.60;;
73585;SDS011;61865;50.232;18.614;2023-08-06T10:31:59;0.50;;;0.50;;
73585;SDS011;61865;50.232;18.614;2023-08-06T10:34:22;0.50;;;0.50;;
73585;SDS011;61865;50.232;18.614;2023-08-06T10:36:44;0.52;;;0.52;;
73585;SDS011;61865;50.232;18.614;2023-08-06T10:39:07;0.70;;;0.70;;
73585;SDS011;61865;50.232;18.614;2023-08-06T10:41:36;0.65;;;0.65;;
73585;SDS011;61865;50.232;18.614;2023-08-06T10:44:05;0.50;;;0.50;;
73585;SDS011;61865;50.232;18.614;2023-08-06T10:46:28;0.82;;;0.82;;
73585;SDS011;61865;50.232;18.614;2023-08-06T10:48:52;0.80;;;0.80;;
73585;SDS011;61865;50.232;18.614;2023-08-06T10:51:14;0.50;;;0.50;;
73585;SDS011;61865;50.232;18.614;2023-08-06T10:53:37;0.57;;;0.57;;
73585;SDS011;61865;50.232;18.614;2023-08-06T10:55:59;0.60;;;0.60;;
73585;SDS011;61865;50.232;18.614;2023-08-06T10:58:22;0.70;;;0.70;;
73585;SDS011;61865;50.232;18.614;2023-08-06T11:00:45;0.50;;;0.50;;
73585;SDS011;61865;50.232;18.614;2023-08-06T11:03:07;0.50;;;0.50;;
73585;SDS011;61865;50.232;18.614;2023-08-06T11:05:32;0.57;;;0.57;;
73585;SDS011;61865;50.232;18.614;2023-08-06T11:07:55;0.60;;;0.60;;
73585;SDS011;61865;50.232;18.614;2023-08-06T11:10:17;0.60;;;0.60;;
73585;SDS011;61865;50.232;18.614;2023-08-06T11:12:39;0.50;;;0.50;;
73585;SDS011;61865;50.232;18.614;2023-08-06T11:15:02;0.50;;;0.50;;
73585;SDS011;61865;50.232;18.614;2023-08-06T11:17:25;0.50;;;0.50;;
73585;SDS011;61865;50.232;18.614;2023-08-06T11:19:47;0.50;;;0.50;;
73585;SDS011;61865;50.232;18.614;2023-08-06T11:22:11;0.50;;;0.50;;
73585;SDS011;61865;50.232;18.614;2023-08-06T11:24:34;0.70;;;0.70;;
73585;SDS011;61865;50.232;18.614;2023-08-06T11:26:56;0.50;;;0.50;;
73585;SDS011;61865;50.232;18.614;2023-08-06T11:29:19;0.45;;;0.45;;
73585;SDS011;61865;50.232;18.614;2023-08-06T11:31:43;0.50;;;0.50;;
73585;SDS011;61865;50.232;18.614;2023-08-06T11:34:05;0.50;;;0.50;;
73585;SDS011;61865;50.232;18.614;2023-08-06T11:36:30;1.30;;;1.30;;
73585;SDS011;61865;50.232;18.614;2023-08-06T11:38:54;0.50;;;0.50;;
73585;SDS011;61865;50.232;18.614;2023-08-06T11:41:17;0.40;;;0.40;;
73585;SDS011;61865;50.232;18.614;2023-08-06T11:43:40;0.40;;;0.40;;
73585;SDS011;61865;50.232;18.614;2023-08-06T11:46:02;0.45;;;0.45;;
73585;SDS011;61865;50.232;18.614;2023-08-06T11:48:25;0.47;;;0.47;;
73585;SDS011;61865;50.232;18.614;2023-08-06T11:50:47;0.40;;;0.40;;
73585;SDS011;61865;50.232;18.614;2023-08-06T11:53:11;0.40;;;0.40;;
73585;SDS011;61865;50.232;18.614;2023-08-06T11:55:36;0.40;;;0.40;;
73585;SDS011;61865;50.232;18.614;2023-08-06T11:58:03;0.40;;;0.40;;
73585;SDS011;61865;50.232;18.614;2023-08-06T12:00:26;0.50;;;0.50;;
73585;SDS011;61865;50.232;18.614;2023-08-06T12:02:48;0.57;;;0.57;;
73585;SDS011;61865;50.232;18.614;2023-08-06T12:05:13;0.38;;;0.38;;
73585;SDS011;61865;50.232;18.614;2023-08-06T12:07:36;0.40;;;0.40;;
73585;SDS011;61865;50.232;18.614;2023-08-06T12:09:59;0.40;;;0.40;;
73585;SDS011;61865;50.232;18.614;2023-08-06T12:12:23;0.40;;;0.40;;
73585;SDS011;61865;50.232;18.614;2023-08-06T12:14:45;0.40;;;0.40;;
73585;SDS011;61865;50.232;18.614;2023-08-06T12:17:08;0.40;;;0.40;;
73585;SDS011;61865;50.232;18.614;2023-08-06T12:19:30;0.40;;;0.40;;
73585;SDS011;61865;50.232;18.614;2023-08-06T12:21:52;0.40;;;0.40;;
73585;SDS011;61865;50.232;18.614;2023-08-06T12:24:15;0.40;;;0.40;;
73585;SDS011;61865;50.232;18.614;2023-08-06T12:26:37;0.40;;;0.40;;
73585;SDS011;61865;50.232;18.614;2023-08-06T12:29:01;0.40;;;0.40;;
73585;SDS011;61865;50.232;18.614;2023-08-06T12:31:23;0.47;;;0.47;;
73585;SDS011;61865;50.232;18.614;2023-08-06T12:33:45;0.40;;;0.40;;
73585;SDS011;61865;50.232;18.614;2023-08-06T12:36:08;0.50;;;0.50;;
73585;SDS011;61865;50.232;18.614;2023-08-06T12:38:30;0.47;;;0.47;;
73585;SDS011;61865;50.232;18.614;2023-08-06T12:40:53;0.40;;;0.40;;
73585;SDS011;61865;50.232;18.614;2023-08-06T12:43:16;0.40;;;0.40;;
73585;SDS011;61865;50.232;18.614;2023-08-06T12:45:40;0.40;;;0.40;;
73585;SDS011;61865;50.232;18.614;2023-08-06T12:48:03;0.50;;;0.50;;
73585;SDS011;61865;50.232;18.614;2023-08-06T12:50:25;0.50;;;0.50;;
73585;SDS011;61865;50.232;18.614;2023-08-06T12:52:48;0.40;;;0.40;;
73585;SDS011;61865;50.232;18.614;2023-08-06T12:55:10;0.50;;;0.50;;
73585;SDS011;61865;50.232;18.614;2023-08-06T12:57:32;0.50;;;0.50;;
73585;SDS011;61865;50.232;18.614;2023-08-06T12:59:55;0.40;;;0.40;;
73585;SDS011;61865;50.232;18.614;2023-08-06T13:02:18;0.40;;;0.40;;
73585;SDS011;61865;50.232;18.614;2023-08-06T13:04:41;0.40;;;0.40;;
73585;SDS011;61865;50.232;18.614;2023-08-06T13:07:03;0.40;;;0.40;;
73585;SDS011;61865;50.232;18.614;2023-08-06T13:09:27;0.40;;;0.40;;
73585;SDS011;61865;50.232;18.614;2023-08-06T13:11:50;0.40;;;0.40;;
73585;SDS011;61865;50.232;18.614;2023-08-06T13:14:13;0.30;;;0.30;;
73585;SDS011;61865;50.232;18.614;2023-08-06T13:16:36;0.47;;;0.47;;
73585;SDS011;61865;50.232;18.614;2023-08-06T13:19:00;0.40;;;0.40;;
73585;SDS011;61865;50.232;18.614;2023-08-06T13:21:23;0.40;;;0.40;;
73585;SDS011;61865;50.232;18.614;2023-08-06T13:23:45;0.40;;;0.40;;
73585;SDS011;61865;50.232;18.614;2023-08-06T13:26:07;0.40;;;0.40;;
73585;SDS011;61865;50.232;18.614;2023-08-06T13:28:30;0.40;;;0.40;;
73585;SDS011;61865;50.232;18.614;2023-08-06T13:30:52;0.30;;;0.30;;
73585;SDS011;61865;50.232;18.614;2023-08-06T13:33:14;0.38;;;0.38;;
73585;SDS011;61865;50.232;18.614;2023-08-06T13:35:38;0.50;;;0.50;;
73585;SDS011;61865;50.232;18.614;2023-08-06T13:38:00;0.40;;;0.40;;
73585;SDS011;61865;50.232;18.614;2023-08-06T13:40:24;0.43;;;0.43;;
73585;SDS011;61865;50.232;18.614;2023-08-06T13:42:46;0.40;;;0.40;;
73585;SDS011;61865;50.232;18.614;2023-08-06T13:45:08;0.30;;;0.30;;
73585;SDS011;61865;50.232;18.614;2023-08-06T13:47:31;0.40;;;0.40;;
73585;SDS011;61865;50.232;18.614;2023-08-06T13:49:53;0.40;;;0.40;;
73585;SDS011;61865;50.232;18.614;2023-08-06T13:52:17;0.30;;;0.30;;
73585;SDS011;61865;50.232;18.614;2023-08-06T13:54:39;0.30;;;0.30;;
73585;SDS011;61865;50.232;18.614;2023-08-06T13:57:02;0.40;;;0.40;;
73585;SDS011;61865;50.232;18.614;2023-08-06T13:59:24;0.40;;;0.40;;
73585;SDS011;61865;50.232;18.614;2023-08-06T14:01:47;0.30;;;0.30;;